sensor_id;sensor_type;location;lat;lon;timestamp;temperature;humidity
12843;DHT22;35724;49.324;-123.118;2024-02-21T00:05:03;11.60;99.90
12843;DHT22;35724;49.324;-123.118;2024-02-21T00:15:11;11.40;99.90
12843;DHT22;35724;49.324;-123.118;2024-02-21T00:25:20;11.10;99.90
12843;DHT22;35724;49.324;-123.118;2024-02-21T00:35:28;11.00;99.90
12843;DHT22;35724;49.324;-123.118;2024-02-21T00:45:37;11.00;99.90
12843;DHT22;35724;49.324;-123.118;2024-02-21T00:55:44;11.00;99.90
12843;DHT22;35724;49.324;-123.118;2024-02-21T01:05:53;10.90;99.90
12843;DHT22;35724;49.324;-123.118;2024-02-21T01:16:00;10.80;99.90
12843;DHT22;35724;49.324;-123.118;2024-02-21T01:26:09;10.70;99.90
12843;DHT22;35724;49.324;-123.118;2024-02-21T01:36:19;10.50;99.90
12843;DHT22;35724;49.324;-123.118;2024-02-21T01:46:28;10.20;99.90
12843;DHT22;35724;49.324;-123.118;2024-02-21T01:56:35;10.00;99.90
12843;DHT22;35724;49.324;-123.118;2024-02-21T02:06:44;10.00;99.90
12843;DHT22;35724;49.324;-123.118;2024-02-21T02:16:51;9.90;99.90
12843;DHT22;35724;49.324;-123.118;2024-02-21T02:27:00;9.90;99.90
12843;DHT22;35724;49.324;-123.118;2024-02-21T02:37:08;9.90;99.90
12843;DHT22;35724;49.324;-123.118;2024-02-21T02:47:17;9.90;99.90
12843;DHT22;35724;49.324;-123.118;2024-02-21T02:57:24;9.90;99.90
12843;DHT22;35724;49.324;-123.118;2024-02-21T03:07:33;9.90;99.90
12843;DHT22;35724;49.324;-123.118;2024-02-21T03:17:40;9.70;99.90
12843;DHT22;35724;49.324;-123.118;2024-02-21T03:27:49;9.80;99.90
12843;DHT22;35724;49.324;-123.118;2024-02-21T03:37:57;9.80;99.90
12843;DHT22;35724;49.324;-123.118;2024-02-21T03:48:07;9.80;99.90
12843;DHT22;35724;49.324;-123.118;2024-02-21T03:58:14;9.80;99.90
12843;DHT22;35724;49.324;-123.118;2024-02-21T04:08:23;9.80;99.90
12843;DHT22;35724;49.324;-123.118;2024-02-21T04:18:30;9.80;99.90
12843;DHT22;35724;49.324;-123.118;2024-02-21T04:28:39;9.70;99.90
12843;DHT22;35724;49.324;-123.118;2024-02-21T04:38:47;9.70;99.90
12843;DHT22;35724;49.324;-123.118;2024-02-21T04:48:57;9.70;99.90
12843;DHT22;35724;49.324;-123.118;2024-02-21T04:59:04;9.70;99.90
12843;DHT22;35724;49.324;-123.118;2024-02-21T05:09:13;9.70;99.90
12843;DHT22;35724;49.324;-123.118;2024-02-21T05:19:20;9.70;99.90
12843;DHT22;35724;49.324;-123.118;2024-02-21T05:29:29;9.60;99.90
12843;DHT22;35724;49.324;-123.118;2024-02-21T05:39:36;9.60;99.90
12843;DHT22;35724;49.324;-123.118;2024-02-21T05:49:45;9.70;99.90
12843;DHT22;35724;49.324;-123.118;2024-02-21T05:59:52;9.60;99.90
12843;DHT22;35724;49.324;-123.118;2024-02-21T06:10:01;9.60;99.90
12843;DHT22;35724;49.324;-123.118;2024-02-21T06:20:09;9.60;99.90
12843;DHT22;35724;49.324;-123.118;2024-02-21T06:30:18;9.60;99.90
12843;DHT22;35724;49.324;-123.118;2024-02-21T06:40:26;9.60;99.90
12843;DHT22;35724;49.324;-123.118;2024-02-21T06:50:35;9.60;99.90
12843;DHT22;35724;49.324;-123.118;2024-02-21T07:00:43;9.50;99.90
12843;DHT22;35724;49.324;-123.118;2024-02-21T07:10:52;9.50;99.90
12843;DHT22;35724;49.324;-123.118;2024-02-21T07:21:00;9.60;99.90
12843;DHT22;35724;49.324;-123.118;2024-02-21T07:31:08;9.60;99.90
12843;DHT22;35724;49.324;-123.118;2024-02-21T07:41:16;9.50;99.90
12843;DHT22;35724;49.324;-123.118;2024-02-21T07:51:28;9.40;99.90
12843;DHT22;35724;49.324;-123.118;2024-02-21T08:01:35;9.40;99.90
12843;DHT22;35724;49.324;-123.118;2024-02-21T08:11:44;9.50;99.90
12843;DHT22;35724;49.324;-123.118;2024-02-21T08:21:52;9.40;99.90
12843;DHT22;35724;49.324;-123.118;2024-02-21T08:32:01;9.30;99.90
12843;DHT22;35724;49.324;-123.118;2024-02-21T08:42:09;9.30;99.90
12843;DHT22;35724;49.324;-123.118;2024-02-21T08:52:18;9.20;99.90
12843;DHT22;35724;49.324;-123.118;2024-02-21T09:02:28;9.20;99.90
12843;DHT22;35724;49.324;-123.118;2024-02-21T09:12:39;9.20;99.90
12843;DHT22;35724;49.324;-123.118;2024-02-21T09:22:46;9.20;99.90
12843;DHT22;35724;49.324;-123.118;2024-02-21T09:32:55;9.10;99.90
12843;DHT22;35724;49.324;-123.118;2024-02-21T09:43:05;9.00;99.90
12843;DHT22;35724;49.324;-123.118;2024-02-21T09:53:15;9.10;99.90
12843;DHT22;35724;49.324;-123.118;2024-02-21T10:03:22;9.10;99.90
12843;DHT22;35724;49.324;-123.118;2024-02-21T10:13:32;9.20;99.90
12843;DHT22;35724;49.324;-123.118;2024-02-21T10:23:47;9.20;99.90
12843;DHT22;35724;49.324;-123.118;2024-02-21T10:33:57;9.20;99.90
12843;DHT22;35724;49.324;-123.118;2024-02-21T10:44:06;9.20;99.90
12843;DHT22;35724;49.324;-123.118;2024-02-21T10:54:30;9.20;99.90
12843;DHT22;35724;49.324;-123.118;2024-02-21T11:04:42;9.20;99.90
12843;DHT22;35724;49.324;-123.118;2024-02-21T11:14:52;9.30;99.90
12843;DHT22;35724;49.324;-123.118;2024-02-21T11:25:07;9.10;99.90
12843;DHT22;35724;49.324;-123.118;2024-02-21T11:35:22;9.10;99.90
12843;DHT22;35724;49.324;-123.118;2024-02-21T11:45:30;9.20;99.90
12843;DHT22;35724;49.324;-123.118;2024-02-21T11:55:40;9.10;99.90
12843;DHT22;35724;49.324;-123.118;2024-02-21T12:05:48;9.20;99.90
12843;DHT22;35724;49.324;-123.118;2024-02-21T12:15:57;9.20;99.90
12843;DHT22;35724;49.324;-123.118;2024-02-21T12:26:04;9.10;99.90
12843;DHT22;35724;49.324;-123.118;2024-02-21T12:36:15;9.10;99.90
12843;DHT22;35724;49.324;-123.118;2024-02-21T12:46:23;9.20;99.90
12843;DHT22;35724;49.324;-123.118;2024-02-21T12:56:32;9.00;99.90
12843;DHT22;35724;49.324;-123.118;2024-02-21T13:06:42;9.10;99.90
12843;DHT22;35724;49.324;-123.118;2024-02-21T13:16:51;9.00;99.90
12843;DHT22;35724;49.324;-123.118;2024-02-21T13:26:59;9.00;99.90
12843;DHT22;35724;49.324;-123.118;2024-02-21T13:37:08;9.10;99.90
12843;DHT22;35724;49.324;-123.118;2024-02-21T13:47:17;9.10;99.90
12843;DHT22;35724;49.324;-123.118;2024-02-21T13:57:26;9.00;99.90
12843;DHT22;35724;49.324;-123.118;2024-02-21T14:07:33;9.10;99.90
12843;DHT22;35724;49.324;-123.118;2024-02-21T14:17:42;9.10;99.90
12843;DHT22;35724;49.324;-123.118;2024-02-21T14:27:52;9.00;99.90
12843;DHT22;35724;49.324;-123.118;2024-02-21T14:38:01;9.00;99.90
12843;DHT22;35724;49.324;-123.118;2024-02-21T14:48:09;9.10;99.90
12843;DHT22;35724;49.324;-123.118;2024-02-21T14:58:19;9.00;99.90
12843;DHT22;35724;49.324;-123.118;2024-02-21T15:08:27;9.00;99.90
12843;DHT22;35724;49.324;-123.118;2024-02-21T15:18:36;9.00;99.90
12843;DHT22;35724;49.324;-123.118;2024-02-21T15:28:43;9.00;99.90
12843;DHT22;35724;49.324;-123.118;2024-02-21T15:38:52;9.00;99.90
12843;DHT22;35724;49.324;-123.118;2024-02-21T15:49:00;9.10;99.90
12843;DHT22;35724;49.324;-123.118;2024-02-21T15:59:09;9.20;99.90
12843;DHT22;35724;49.324;-123.118;2024-02-21T16:09:17;9.40;99.90
12843;DHT22;35724;49.324;-123.118;2024-02-21T16:19:26;9.50;99.90
12843;DHT22;35724;49.324;-123.118;2024-02-21T16:29:33;9.80;99.90
12843;DHT22;35724;49.324;-123.118;2024-02-21T16:39:43;10.00;99.90
12843;DHT22;35724;49.324;-123.118;2024-02-21T16:49:51;10.30;99.90
12843;DHT22;35724;49.324;-123.118;2024-02-21T17:00:00;10.70;99.90
12843;DHT22;35724;49.324;-123.118;2024-02-21T17:10:10;11.30;99.90
12843;DHT22;35724;49.324;-123.118;2024-02-21T17:20:19;11.20;99.90
12843;DHT22;35724;49.324;-123.118;2024-02-21T17:30:27;11.00;99.90
12843;DHT22;35724;49.324;-123.118;2024-02-21T17:40:35;11.00;99.90
12843;DHT22;35724;49.324;-123.118;2024-02-21T17:50:43;11.00;99.90
12843;DHT22;35724;49.324;-123.118;2024-02-21T18:00:52;11.50;99.90
12843;DHT22;35724;49.324;-123.118;2024-02-21T18:11:02;11.80;99.90
12843;DHT22;35724;49.324;-123.118;2024-02-21T18:21:12;12.00;99.90
12843;DHT22;35724;49.324;-123.118;2024-02-21T18:31:19;12.00;99.90
12843;DHT22;35724;49.324;-123.118;2024-02-21T18:41:28;11.80;99.90
12843;DHT22;35724;49.324;-123.118;2024-02-21T18:51:36;11.80;99.90
12843;DHT22;35724;49.324;-123.118;2024-02-21T19:01:46;11.90;99.90
12843;DHT22;35724;49.324;-123.118;2024-02-21T19:11:53;12.50;99.90
12843;DHT22;35724;49.324;-123.118;2024-02-21T19:22:02;12.70;99.90
12843;DHT22;35724;49.324;-123.118;2024-02-21T19:32:10;13.00;99.90
12843;DHT22;35724;49.324;-123.118;2024-02-21T19:42:19;12.60;99.90
12843;DHT22;35724;49.324;-123.118;2024-02-21T19:52:27;13.10;99.90
12843;DHT22;35724;49.324;-123.118;2024-02-21T20:02:38;13.40;99.90
12843;DHT22;35724;49.324;-123.118;2024-02-21T20:12:45;13.40;99.90
12843;DHT22;35724;49.324;-123.118;2024-02-21T20:22:55;13.50;99.90
12843;DHT22;35724;49.324;-123.118;2024-02-21T20:33:03;14.50;99.90
12843;DHT22;35724;49.324;-123.118;2024-02-21T20:43:13;14.50;99.90
12843;DHT22;35724;49.324;-123.118;2024-02-21T20:53:22;14.80;99.90
12843;DHT22;35724;49.324;-123.118;2024-02-21T21:03:35;16.50;99.90
12843;DHT22;35724;49.324;-123.118;2024-02-21T21:13:45;15.40;99.90
12843;DHT22;35724;49.324;-123.118;2024-02-21T21:23:54;14.50;99.90
12843;DHT22;35724;49.324;-123.118;2024-02-21T21:34:01;14.20;99.90
12843;DHT22;35724;49.324;-123.118;2024-02-21T21:44:10;14.60;99.90
12843;DHT22;35724;49.324;-123.118;2024-02-21T21:54:19;14.50;99.90
12843;DHT22;35724;49.324;-123.118;2024-02-21T22:04:28;14.60;99.90
12843;DHT22;35724;49.324;-123.118;2024-02-21T22:14:35;14.10;99.90
12843;DHT22;35724;49.324;-123.118;2024-02-21T22:24:44;13.60;99.90
12843;DHT22;35724;49.324;-123.118;2024-02-21T22:34:52;13.70;99.90
12843;DHT22;35724;49.324;-123.118;2024-02-21T22:45:01;13.60;99.90
12843;DHT22;35724;49.324;-123.118;2024-02-21T22:55:09;14.00;99.90
12843;DHT22;35724;49.324;-123.118;2024-02-21T23:05:18;13.50;99.90
12843;DHT22;35724;49.324;-123.118;2024-02-21T23:15:28;13.00;99.90
12843;DHT22;35724;49.324;-123.118;2024-02-21T23:25:37;12.80;99.90
12843;DHT22;35724;49.324;-123.118;2024-02-21T23:35:47;12.90;99.90
12843;DHT22;35724;49.324;-123.118;2024-02-21T23:45:56;13.20;99.90
12843;DHT22;35724;49.324;-123.118;2024-02-21T23:56:07;12.50;99.90
